Terminal Aerodrome Forecast
Issued by NWS Cleveland, OH

Home | Current Version | Previous Version | Graphics & Text | Print | Product List | Glossary On
Versions: 1 2 3 4 5 6 7 8 9 10 11 12 13 14 15 16 17 18 19
011
FTUS41 KCLE 202246 AAA
TAFYNG
TAF AMD
KYNG 202246Z 2023/2118 16004KT P6SM OVC035
      TEMPO 2100/2104 -SHRA OVC015
     FM210400 VRB04KT P6SM OVC012
     FM210700 35004KT 4SM BR OVC006
     FM211500 35008KT P6SM OVC012=

USA.gov is the U.S. government's official web portal to all federal, state and local government web resources and services.